createdAt,value
2018-05-12T00:01:20.172Z,14.10
2018-05-12T00:03:50.188Z,14.10
2018-05-12T00:06:18.359Z,14.10
2018-05-12T00:08:46.450Z,14.10
2018-05-12T00:11:14.554Z,14.10
2018-05-12T00:14:02.505Z,14.10
2018-05-12T00:16:30.593Z,14.10
2018-05-12T00:18:59.665Z,14.10
2018-05-12T00:21:28.442Z,14.10
2018-05-12T00:23:56.520Z,14.00
2018-05-12T00:26:24.618Z,14.10
2018-05-12T00:28:53.476Z,14.00
2018-05-12T00:31:21.560Z,14.00
2018-05-12T00:33:49.682Z,14.00
2018-05-12T00:36:18.700Z,14.00
2018-05-12T00:38:48.540Z,14.10
2018-05-12T00:41:17.535Z,14.00
2018-05-12T00:43:46.392Z,14.20
2018-05-12T00:46:16.689Z,14.20
2018-05-12T00:48:44.790Z,14.20
2018-05-12T00:51:12.877Z,14.20
2018-05-12T00:53:46.367Z,14.20
2018-05-12T00:56:14.449Z,14.30
2018-05-12T00:58:42.538Z,14.30
2018-05-12T01:01:14.704Z,14.30
2018-05-12T01:03:47.932Z,14.30
2018-05-12T01:06:16.012Z,14.30
2018-05-12T01:08:46.018Z,14.30
2018-05-12T01:11:14.109Z,14.30
2018-05-12T01:13:43.778Z,14.40
2018-05-12T01:16:11.870Z,14.40
2018-05-12T01:18:39.961Z,14.40
2018-05-12T01:21:08.042Z,14.40
2018-05-12T01:23:40.259Z,14.40
2018-05-12T01:26:09.381Z,14.40
2018-05-12T01:28:37.484Z,14.40
2018-05-12T01:31:07.501Z,14.40
2018-05-12T01:33:35.599Z,14.40
2018-05-12T01:36:03.695Z,14.30
2018-05-12T01:38:31.783Z,14.40
2018-05-12T01:41:00.843Z,14.40
2018-05-12T01:43:28.931Z,14.40
2018-05-12T01:45:57.919Z,14.30
2018-05-12T01:48:26.017Z,14.30
2018-05-12T01:50:54.136Z,14.30
2018-05-12T01:53:22.225Z,14.30
2018-05-12T01:55:50.299Z,14.30
2018-05-12T01:58:18.388Z,14.30
2018-05-12T02:00:47.457Z,14.30
2018-05-12T02:03:15.550Z,14.30
2018-05-12T02:06:03.249Z,14.30
2018-05-12T02:08:33.350Z,14.30
2018-05-12T02:11:05.489Z,14.30
2018-05-12T02:13:33.588Z,14.30
2018-05-12T02:16:01.692Z,14.30
2018-05-12T02:18:29.788Z,14.30
2018-05-12T02:20:57.897Z,14.30
2018-05-12T02:23:26.016Z,14.30
2018-05-12T02:25:57.686Z,14.30
2018-05-12T02:28:29.585Z,14.30
2018-05-12T02:31:04.398Z,14.30
2018-05-12T02:33:32.479Z,14.30
2018-05-12T02:36:00.562Z,14.30
2018-05-12T02:38:28.633Z,14.30
2018-05-12T02:40:56.742Z,14.30
2018-05-12T02:43:25.767Z,14.30
2018-05-12T02:45:55.569Z,14.30
2018-05-12T02:48:27.604Z,14.30
2018-05-12T02:50:55.688Z,14.30
2018-05-12T02:53:23.811Z,14.30
2018-05-12T02:55:53.877Z,14.30
2018-05-12T02:58:26.029Z,14.30
2018-05-12T03:00:54.123Z,14.30
2018-05-12T03:03:22.190Z,14.30
2018-05-12T03:05:51.187Z,14.30
2018-05-12T03:08:20.206Z,14.20
2018-05-12T03:10:48.300Z,14.20
2018-05-12T03:13:17.151Z,14.20
2018-05-12T03:15:45.255Z,14.20
2018-05-12T03:18:14.099Z,14.20
2018-05-12T03:20:42.677Z,14.20
2018-05-12T03:23:10.768Z,14.20
2018-05-12T03:25:47.105Z,14.20
2018-05-12T03:28:15.975Z,14.20
2018-05-12T03:30:44.068Z,14.20
2018-05-12T03:33:12.147Z,14.20
2018-05-12T03:35:42.031Z,14.20
2018-05-12T03:38:10.882Z,14.20
2018-05-12T03:40:38.961Z,14.20
2018-05-12T03:43:09.027Z,14.20
2018-05-12T03:45:40.585Z,14.20
2018-05-12T03:48:10.420Z,14.20
2018-05-12T03:50:42.469Z,14.20
2018-05-12T03:53:11.391Z,14.10
2018-05-12T03:55:40.288Z,14.10
2018-05-12T03:58:20.123Z,14.10
2018-05-12T04:00:51.230Z,14.10
2018-05-12T04:03:19.309Z,14.10
2018-05-12T04:05:59.258Z,14.10
2018-05-12T04:08:39.051Z,14.10
2018-05-12T04:11:18.903Z,14.20
2018-05-12T04:13:47.013Z,14.10
2018-05-12T04:16:15.443Z,14.20
2018-05-12T04:18:43.523Z,14.20
2018-05-12T04:21:12.384Z,14.20
2018-05-12T04:23:42.010Z,14.20
2018-05-12T04:26:25.345Z,14.20
2018-05-12T04:28:53.425Z,14.20
2018-05-12T04:31:25.877Z,14.20
2018-05-12T04:33:59.505Z,14.20
2018-05-12T04:36:28.503Z,14.20
2018-05-12T04:38:56.596Z,14.30
2018-05-12T04:41:24.685Z,14.40
2018-05-12T04:44:13.010Z,14.40
2018-05-12T04:52:48.505Z,14.50
2018-05-12T04:55:16.602Z,14.50
2018-05-12T04:57:44.696Z,14.50
2018-05-12T05:00:13.570Z,14.50
2018-05-12T05:02:41.688Z,14.50
2018-05-12T05:05:11.744Z,14.60
2018-05-12T05:07:39.848Z,14.60
2018-05-12T05:10:07.950Z,14.60
2018-05-12T05:12:36.053Z,14.70
2018-05-12T05:15:08.388Z,14.70
2018-05-12T05:17:36.486Z,14.80
2018-05-12T05:20:04.579Z,14.80
2018-05-12T05:22:32.683Z,14.80
2018-05-12T05:25:02.768Z,14.90
2018-05-12T05:27:30.854Z,14.90
2018-05-12T05:29:58.954Z,14.90
2018-05-12T05:32:27.046Z,15.00
2018-05-12T05:34:56.843Z,15.00
2018-05-12T05:37:37.084Z,15.10
2018-05-12T05:40:11.438Z,15.10
2018-05-12T05:42:39.565Z,15.10
2018-05-12T05:45:07.625Z,15.20
2018-05-12T05:47:36.713Z,15.20
2018-05-12T05:50:04.812Z,15.20
2018-05-12T05:52:33.928Z,15.30
2018-05-12T05:55:03.008Z,15.30
2018-05-12T05:57:31.124Z,15.40
2018-05-12T06:00:00.191Z,15.40
2018-05-12T06:02:29.140Z,15.50
2018-05-12T06:04:57.242Z,15.50
2018-05-12T06:07:26.313Z,15.60
2018-05-12T06:09:56.353Z,15.60
2018-05-12T06:12:24.458Z,15.70
2018-05-12T06:14:52.573Z,15.80
2018-05-12T06:17:21.441Z,16.00
2018-05-12T06:19:49.548Z,16.00
2018-05-12T06:22:25.061Z,16.10
2018-05-12T06:24:54.154Z,16.20
2018-05-12T06:27:22.258Z,16.20
2018-05-12T06:29:50.360Z,16.30
2018-05-12T06:32:24.248Z,16.40
2018-05-12T06:34:52.359Z,16.50
2018-05-12T06:37:25.131Z,16.60
2018-05-12T06:39:54.243Z,16.70
2018-05-12T06:42:23.333Z,16.80
2018-05-12T06:44:51.444Z,16.90
2018-05-12T06:47:23.100Z,17.00
2018-05-12T06:49:52.198Z,17.00
2018-05-12T06:52:22.024Z,17.20
2018-05-12T06:54:50.189Z,17.10
2018-05-12T06:57:19.609Z,17.30
2018-05-12T06:59:47.748Z,17.30
2018-05-12T07:02:19.381Z,17.30
2018-05-12T07:04:48.383Z,17.30
2018-05-12T07:07:18.171Z,17.40
2018-05-12T07:09:55.618Z,17.50
2018-05-12T07:12:23.817Z,17.90
2018-05-12T07:14:57.653Z,18.20
2018-05-12T07:17:26.646Z,18.30
2018-05-12T07:19:55.794Z,18.30
2018-05-12T07:22:25.871Z,18.30
2018-05-12T07:24:54.972Z,18.10
2018-05-12T07:27:23.125Z,18.00
2018-05-12T07:29:51.261Z,17.90
2018-05-12T07:32:20.329Z,17.90
2018-05-12T07:34:59.104Z,17.90
2018-05-12T07:37:27.603Z,17.80
2018-05-12T07:39:55.691Z,17.90
2018-05-12T07:42:29.263Z,17.80
2018-05-12T07:44:57.414Z,17.80
2018-05-12T07:47:25.509Z,17.90
2018-05-12T07:49:53.604Z,18.10
2018-05-12T07:52:21.708Z,18.10
2018-05-12T07:54:53.425Z,18.20
2018-05-12T07:57:21.536Z,18.40
2018-05-12T07:59:49.644Z,18.50
2018-05-12T08:02:18.660Z,18.60
2018-05-12T08:04:46.757Z,18.70
2018-05-12T08:07:14.831Z,18.70
2018-05-12T08:09:52.897Z,18.60
2018-05-12T08:12:22.959Z,18.50
2018-05-12T08:14:52.004Z,18.50
2018-05-12T08:17:20.081Z,18.40
2018-05-12T08:19:48.175Z,18.40
2018-05-12T08:22:16.309Z,18.40
2018-05-12T08:24:44.406Z,18.40
2018-05-12T08:27:13.503Z,18.50
2018-05-12T08:29:41.735Z,18.50
2018-05-12T08:32:17.495Z,18.60
2018-05-12T08:34:45.630Z,18.70
2018-05-12T08:37:14.533Z,18.90
2018-05-12T08:39:43.438Z,18.90
2018-05-12T08:42:16.007Z,19.10
2018-05-12T08:44:45.925Z,19.10
2018-05-12T08:47:20.036Z,19.20
2018-05-12T08:49:52.260Z,19.40
2018-05-12T08:52:23.737Z,19.70
2018-05-12T08:54:52.607Z,19.90
2018-05-12T08:57:21.498Z,20.00
2018-05-12T08:59:49.681Z,20.00
2018-05-12T09:02:17.756Z,20.10
2018-05-12T09:04:46.876Z,20.20
2018-05-12T09:07:17.015Z,20.50
2018-05-12T09:09:49.118Z,20.60
2018-05-12T09:12:17.276Z,20.80
2018-05-12T09:14:46.340Z,21.10
2018-05-12T09:17:14.427Z,21.30
2018-05-12T09:19:42.522Z,21.50
2018-05-12T09:22:29.624Z,21.60
2018-05-12T09:24:57.713Z,21.70
2018-05-12T09:27:25.807Z,21.80
2018-05-12T09:29:54.880Z,22.00
2018-05-12T09:32:23.987Z,22.10
2018-05-12T09:34:52.842Z,22.40
2018-05-12T09:37:21.014Z,22.30
2018-05-12T09:39:49.629Z,22.40
2018-05-12T09:42:19.321Z,22.50
2018-05-12T09:44:48.021Z,22.60
2018-05-12T09:47:17.673Z,22.70
2018-05-12T09:52:37.131Z,22.90
2018-05-12T09:55:05.349Z,23.00
2018-05-12T09:57:40.684Z,23.20
2018-05-12T10:00:09.696Z,23.20
2018-05-12T10:02:38.767Z,23.20
2018-05-12T10:05:07.633Z,23.60
2018-05-12T10:07:42.284Z,23.50
2018-05-12T10:10:10.403Z,23.60
2018-05-12T10:12:38.549Z,23.70
2018-05-12T10:15:08.397Z,23.80
2018-05-12T10:17:47.469Z,23.90
2018-05-12T10:20:17.506Z,23.90
2018-05-12T10:22:47.641Z,24.00
2018-05-12T10:25:28.216Z,24.00
2018-05-12T10:27:56.368Z,24.10
2018-05-12T10:30:36.509Z,24.40
2018-05-12T10:33:04.619Z,24.40
2018-05-12T10:35:33.129Z,24.60
2018-05-12T10:38:01.978Z,24.60
2018-05-12T10:40:34.231Z,24.60
2018-05-12T10:43:02.307Z,24.60
2018-05-12T10:45:34.679Z,24.70
2018-05-12T10:48:06.797Z,24.70
2018-05-12T10:50:35.033Z,24.20
2018-05-12T10:53:03.337Z,24.60
2018-05-12T10:55:32.950Z,24.10
2018-05-12T10:58:01.042Z,24.00
2018-05-12T11:00:30.112Z,24.30
2018-05-12T11:02:58.344Z,24.50
2018-05-12T11:05:31.270Z,24.60
2018-05-12T11:08:05.812Z,24.80
2018-05-12T11:10:33.952Z,24.80
2018-05-12T11:13:02.035Z,25.00
2018-05-12T11:15:38.717Z,25.20
2018-05-12T11:18:07.789Z,25.30
2018-05-12T11:20:36.161Z,25.20
2018-05-12T11:23:04.276Z,25.20
2018-05-12T11:25:50.363Z,25.40
2018-05-12T11:28:18.451Z,25.50
2018-05-12T11:30:48.634Z,25.70
2018-05-12T11:33:18.905Z,25.60
2018-05-12T11:35:47.975Z,25.50
2018-05-12T11:38:16.090Z,25.20
2018-05-12T11:40:45.222Z,25.30
2018-05-12T11:43:13.314Z,25.20
2018-05-12T11:45:54.422Z,25.40
2018-05-12T11:48:24.345Z,25.20
2018-05-12T11:50:53.208Z,24.40
2018-05-12T11:53:21.484Z,24.40
2018-05-12T11:55:55.704Z,24.20
2018-05-12T11:58:23.844Z,24.00
2018-05-12T12:00:51.857Z,23.90
2018-05-12T12:03:21.937Z,23.80
2018-05-12T12:05:51.019Z,23.80
2018-05-12T12:08:21.109Z,23.60
2018-05-12T12:10:49.976Z,23.40
2018-05-12T12:16:17.698Z,23.40
2018-05-12T12:18:45.791Z,23.40
2018-05-12T12:21:14.655Z,23.40
2018-05-12T12:23:49.585Z,23.40
2018-05-12T12:26:18.408Z,23.40
2018-05-12T12:28:46.490Z,23.50
2018-05-12T12:31:15.600Z,23.60
2018-05-12T12:33:43.709Z,23.60
2018-05-12T12:36:11.844Z,23.80
2018-05-12T12:38:40.639Z,23.90
2018-05-12T12:41:08.737Z,23.80
2018-05-12T12:43:38.758Z,23.90
2018-05-12T12:46:06.873Z,23.90
2018-05-12T12:48:36.212Z,23.90
2018-05-12T12:51:04.316Z,23.80
2018-05-12T12:53:32.445Z,23.90
2018-05-12T12:56:00.544Z,24.00
2018-05-12T12:58:28.690Z,24.10
2018-05-12T13:00:58.208Z,24.40
2018-05-12T13:03:29.368Z,24.30
2018-05-12T13:05:57.493Z,24.50
2018-05-12T13:08:25.587Z,24.40
2018-05-12T13:10:54.455Z,24.40
2018-05-12T13:13:22.533Z,24.30
2018-05-12T13:15:50.698Z,24.40
2018-05-12T13:18:18.783Z,24.30
2018-05-12T13:20:46.896Z,24.30
2018-05-12T13:23:14.998Z,24.40
2018-05-12T13:25:43.124Z,24.40
2018-05-12T13:28:11.242Z,24.40
2018-05-12T13:30:41.311Z,24.30
2018-05-12T13:33:09.635Z,24.30
2018-05-12T13:35:37.742Z,24.30
2018-05-12T13:38:05.844Z,24.20
2018-05-12T13:40:33.929Z,23.90
2018-05-12T13:43:02.062Z,23.60
2018-05-12T13:45:36.474Z,23.50
2018-05-12T13:48:04.506Z,23.60
2018-05-12T13:50:32.603Z,23.90
2018-05-12T13:53:00.707Z,23.90
2018-05-12T13:55:28.826Z,24.00
2018-05-12T13:58:01.232Z,23.90
2018-05-12T14:00:29.360Z,23.90
2018-05-12T14:02:57.463Z,24.10
2018-05-12T14:05:27.327Z,24.50
2018-05-12T14:07:56.864Z,24.50
2018-05-12T14:10:24.990Z,24.30
2018-05-12T14:12:54.217Z,24.00
2018-05-12T14:15:23.303Z,23.90
2018-05-12T14:17:56.756Z,23.90
2018-05-12T14:20:26.002Z,23.70
2018-05-12T14:22:55.606Z,23.90
2018-05-12T14:25:23.713Z,23.90
2018-05-12T14:27:51.804Z,24.10
2018-05-12T14:30:19.914Z,24.20
2018-05-12T14:32:48.831Z,24.20
2018-05-12T14:35:17.911Z,24.20
2018-05-12T14:37:46.868Z,23.70
2018-05-12T14:40:15.986Z,23.40
2018-05-12T14:42:44.133Z,23.00
2018-05-12T14:45:12.253Z,22.80
2018-05-12T14:47:40.899Z,22.70
2018-05-12T14:50:10.179Z,22.50
2018-05-12T14:52:42.633Z,22.50
2018-05-12T14:55:14.372Z,22.40
2018-05-12T14:57:43.437Z,22.40
2018-05-12T15:00:12.627Z,22.50
2018-05-12T15:02:41.583Z,22.50
2018-05-12T15:05:11.782Z,22.60
2018-05-12T15:07:39.873Z,22.80
2018-05-12T15:10:09.451Z,22.90
2018-05-12T15:12:37.945Z,22.80
2018-05-12T15:15:14.369Z,22.60
2018-05-12T15:17:42.485Z,22.60
2018-05-12T15:20:12.433Z,22.50
2018-05-12T15:22:41.480Z,22.50
2018-05-12T15:25:10.565Z,22.60
2018-05-12T15:27:39.696Z,22.70
2018-05-12T15:30:07.784Z,23.00
2018-05-12T15:32:35.895Z,23.10
2018-05-12T15:35:04.033Z,23.30
2018-05-12T15:37:32.176Z,23.50
2018-05-12T15:40:01.044Z,23.40
2018-05-12T15:42:29.153Z,23.30
2018-05-12T15:44:57.332Z,23.10
2018-05-12T15:47:27.350Z,23.00
2018-05-12T15:49:55.535Z,23.10
2018-05-12T15:52:23.601Z,23.00
2018-05-12T15:54:53.613Z,22.90
2018-05-12T15:57:22.794Z,22.90
2018-05-12T15:59:54.598Z,23.00
2018-05-12T16:02:22.700Z,23.00
2018-05-12T16:04:52.776Z,23.00
2018-05-12T16:07:20.898Z,23.10
2018-05-12T16:09:48.984Z,23.20
2018-05-12T16:12:17.628Z,23.20
2018-05-12T16:14:46.756Z,23.20
2018-05-12T16:17:14.852Z,22.90
2018-05-12T16:19:43.993Z,22.70
2018-05-12T16:22:12.119Z,22.40
2018-05-12T16:24:42.224Z,22.30
2018-05-12T16:27:21.076Z,22.20
2018-05-12T16:29:49.949Z,22.20
2018-05-12T16:32:20.116Z,22.10
2018-05-12T16:34:48.996Z,22.10
2018-05-12T16:37:20.191Z,22.00
2018-05-12T16:39:52.091Z,21.80
2018-05-12T16:42:23.557Z,21.70
2018-05-12T16:44:58.112Z,21.70
2018-05-12T16:47:26.275Z,21.70
2018-05-12T16:49:54.369Z,21.70
2018-05-12T16:52:22.493Z,21.60
2018-05-12T16:54:50.637Z,21.70
2018-05-12T16:57:18.719Z,21.80
2018-05-12T16:59:46.813Z,21.70
2018-05-12T17:02:14.915Z,21.50
2018-05-12T17:04:46.136Z,21.50
2018-05-12T17:07:14.993Z,21.30
2018-05-12T17:09:44.055Z,21.30
2018-05-12T17:12:14.134Z,21.40
2018-05-12T17:14:44.219Z,21.50
2018-05-12T17:17:13.122Z,21.50
2018-05-12T17:19:42.227Z,21.60
2018-05-12T17:22:10.372Z,21.70
2018-05-12T17:24:38.537Z,21.60
2018-05-12T17:27:06.637Z,21.60
2018-05-12T17:29:35.503Z,21.30
2018-05-12T17:32:03.599Z,21.30
2018-05-12T17:34:31.813Z,21.30
2018-05-12T17:37:05.692Z,21.20
2018-05-12T17:39:33.792Z,21.10
2018-05-12T17:42:06.440Z,21.00
2018-05-12T17:44:34.557Z,20.90
2018-05-12T17:47:04.565Z,20.80
2018-05-12T17:49:34.462Z,20.60
2018-05-12T17:52:02.561Z,20.50
2018-05-12T17:54:30.681Z,20.50
2018-05-12T17:56:59.753Z,20.40
2018-05-12T17:59:27.840Z,20.30
2018-05-12T18:01:55.941Z,20.20
2018-05-12T18:04:24.036Z,20.10
2018-05-12T18:06:52.142Z,20.10
2018-05-12T18:09:20.371Z,20.00
2018-05-12T18:11:48.537Z,19.80
2018-05-12T18:14:16.651Z,19.70
2018-05-12T18:16:45.396Z,19.70
2018-05-12T18:19:19.239Z,19.60
2018-05-12T18:21:47.342Z,19.60
2018-05-12T18:24:16.336Z,19.60
2018-05-12T18:26:44.471Z,19.50
2018-05-12T18:29:12.639Z,19.40
2018-05-12T18:31:43.877Z,19.30
2018-05-12T18:34:11.993Z,19.20
2018-05-12T18:36:40.111Z,19.10
2018-05-12T18:39:08.231Z,19.00
2018-05-12T18:41:38.112Z,18.80
2018-05-12T18:44:06.274Z,18.70
2018-05-12T18:46:34.314Z,18.60
2018-05-12T18:49:02.753Z,18.50
2018-05-12T18:51:34.102Z,18.40
2018-05-12T18:54:05.408Z,18.30
2018-05-12T18:56:35.461Z,18.20
2018-05-12T18:59:06.502Z,18.10
2018-05-12T19:01:36.376Z,18.00
2018-05-12T19:04:05.404Z,18.00
2018-05-12T19:06:34.260Z,17.80
2018-05-12T19:09:03.138Z,17.70
2018-05-12T19:11:31.219Z,17.70
2018-05-12T19:14:06.144Z,17.60
2018-05-12T19:16:34.205Z,17.50
2018-05-12T19:19:06.815Z,17.50
2018-05-12T19:21:35.674Z,17.40
2018-05-12T19:24:03.762Z,17.40
2018-05-12T19:26:32.924Z,17.40
2018-05-12T19:29:01.791Z,17.30
2018-05-12T19:31:34.938Z,17.20
2018-05-12T19:34:03.030Z,17.20
2018-05-12T19:36:31.146Z,17.10
2018-05-12T19:39:00.259Z,17.10
2018-05-12T19:41:32.408Z,17.00
2018-05-12T19:44:00.500Z,16.90
2018-05-12T19:46:28.599Z,16.90
2018-05-12T19:48:56.690Z,16.80
2018-05-12T19:51:28.725Z,16.80
2018-05-12T19:53:56.814Z,16.80
2018-05-12T19:56:25.871Z,16.80
2018-05-12T19:58:54.876Z,16.70
2018-05-12T20:01:23.927Z,16.60
2018-05-12T20:03:55.196Z,16.50
2018-05-12T20:06:23.276Z,16.50
2018-05-12T20:08:51.385Z,16.40
2018-05-12T20:11:19.526Z,16.40
2018-05-12T20:13:49.365Z,16.30
2018-05-12T20:16:20.227Z,16.20
2018-05-12T20:18:49.031Z,16.20
2018-05-12T20:21:18.080Z,16.20
2018-05-12T20:23:46.187Z,16.10
2018-05-12T20:26:15.052Z,16.10
2018-05-12T20:28:43.143Z,16.10
2018-05-12T20:31:11.267Z,16.00
2018-05-12T20:33:39.383Z,16.00
2018-05-12T20:36:10.414Z,16.00
2018-05-12T20:38:38.513Z,15.90
2018-05-12T20:41:06.612Z,15.90
2018-05-12T20:43:34.714Z,15.90
2018-05-12T20:46:02.812Z,15.80
2018-05-12T20:48:31.680Z,15.80
2018-05-12T20:51:00.577Z,15.70
2018-05-12T20:53:28.702Z,15.70
2018-05-12T20:55:56.831Z,15.70
2018-05-12T20:58:24.945Z,15.70
2018-05-12T21:00:53.053Z,15.60
2018-05-12T21:03:21.149Z,15.70
2018-05-12T21:05:50.225Z,15.60
2018-05-12T21:08:19.349Z,15.60
2018-05-12T21:10:47.440Z,15.70
2018-05-12T21:13:15.514Z,15.60
2018-05-12T21:15:56.241Z,15.60
2018-05-12T21:18:24.350Z,15.60
2018-05-12T21:20:53.436Z,15.60
2018-05-12T21:23:21.509Z,15.60
2018-05-12T21:25:49.607Z,15.60
2018-05-12T21:28:17.759Z,15.70
2018-05-12T21:30:50.809Z,15.70
2018-05-12T21:33:18.964Z,15.70
2018-05-12T21:35:46.965Z,15.70
2018-05-12T21:38:15.058Z,15.80
2018-05-12T21:40:43.158Z,15.70
2018-05-12T21:43:17.302Z,15.70
2018-05-12T21:45:46.413Z,15.70
2018-05-12T21:48:14.476Z,15.60
2018-05-12T21:50:42.591Z,15.60
2018-05-12T21:53:11.742Z,15.60
2018-05-12T21:55:39.869Z,15.60
2018-05-12T21:58:07.957Z,15.60
2018-05-12T22:00:36.867Z,15.70
2018-05-12T22:03:04.979Z,15.70
2018-05-12T22:05:34.833Z,15.90
2018-05-12T22:08:03.952Z,15.80
2018-05-12T22:10:32.940Z,16.00
2018-05-12T22:13:01.049Z,16.00
2018-05-12T22:15:29.159Z,16.00
2018-05-12T22:17:58.016Z,16.00
2018-05-12T22:20:26.137Z,15.90
2018-05-12T22:22:54.251Z,15.90
2018-05-12T22:25:22.376Z,15.90
2018-05-12T22:27:51.494Z,15.90
2018-05-12T22:30:20.626Z,15.90
2018-05-12T22:32:51.713Z,16.00
2018-05-12T22:35:19.834Z,16.00
2018-05-12T22:37:47.971Z,16.00
2018-05-12T22:40:16.841Z,16.00
2018-05-12T22:42:44.944Z,15.90
2018-05-12T22:45:13.036Z,16.00
2018-05-12T22:47:41.946Z,16.00
2018-05-12T22:50:15.798Z,15.90
2018-05-12T22:52:44.755Z,16.00
2018-05-12T22:55:12.907Z,15.90
2018-05-12T22:57:41.020Z,15.80
2018-05-12T23:00:09.103Z,15.70
2018-05-12T23:02:39.905Z,15.50
2018-05-12T23:05:08.893Z,15.50
2018-05-12T23:07:37.004Z,15.40
2018-05-12T23:10:05.257Z,15.30
2018-05-12T23:12:33.316Z,15.30
2018-05-12T23:15:01.415Z,15.30
2018-05-12T23:17:30.294Z,15.20
2018-05-12T23:19:59.188Z,15.30
2018-05-12T23:22:27.325Z,15.30
2018-05-12T23:24:55.511Z,15.30
2018-05-12T23:27:23.589Z,15.30
2018-05-12T23:29:52.584Z,15.30
2018-05-12T23:32:20.673Z,15.30
2018-05-12T23:34:48.768Z,15.20
2018-05-12T23:37:16.871Z,15.20
2018-05-12T23:39:45.007Z,15.20
2018-05-12T23:42:13.883Z,15.20
2018-05-12T23:44:42.056Z,15.20
2018-05-12T23:47:10.145Z,15.20
2018-05-12T23:49:39.201Z,15.10
2018-05-12T23:52:07.305Z,15.00
2018-05-12T23:54:35.413Z,15.00
2018-05-12T23:57:03.512Z,14.90
2018-05-12T23:59:31.609Z,14.90
